createdAt,value
2018-02-05T00:00:33.986Z,4.57
2018-02-05T00:03:02.183Z,2.43
2018-02-05T00:05:29.618Z,2.50
2018-02-05T00:07:57.058Z,7.33
2018-02-05T00:10:25.266Z,3.33
2018-02-05T00:12:52.694Z,1.83
2018-02-05T00:15:20.905Z,3.63
2018-02-05T00:17:48.398Z,3.60
2018-02-05T00:20:15.842Z,3.43
2018-02-05T00:22:43.261Z,4.23
2018-02-05T00:25:10.702Z,1.13
2018-02-05T00:27:38.899Z,3.50
2018-02-05T00:30:06.329Z,2.70
2018-02-05T00:32:34.530Z,2.43
2018-02-05T00:35:01.974Z,3.27
2018-02-05T00:37:29.417Z,3.17
2018-02-05T00:39:57.642Z,3.43
2018-02-05T00:42:25.098Z,4.00
2018-02-05T00:44:52.538Z,2.63
2018-02-05T00:47:19.966Z,4.63
2018-02-05T00:49:48.170Z,2.50
2018-02-05T00:52:15.645Z,1.87
2018-02-05T00:54:43.082Z,3.07
2018-02-05T00:57:10.557Z,2.67
2018-02-05T00:59:38.014Z,6.20
2018-02-05T01:02:05.441Z,1.30
2018-02-05T01:04:32.929Z,3.37
2018-02-05T01:07:00.359Z,2.43
2018-02-05T01:09:27.794Z,3.17
2018-02-05T01:11:55.222Z,3.20
2018-02-05T01:14:22.667Z,2.13
2018-02-05T01:16:50.854Z,3.70
2018-02-05T01:19:18.303Z,2.50
2018-02-05T01:21:46.502Z,4.43
2018-02-05T01:24:14.714Z,3.20
2018-02-05T01:26:42.149Z,4.77
2018-02-05T01:29:09.621Z,5.13
2018-02-05T01:31:37.038Z,2.90
2018-02-05T01:34:04.467Z,4.90
2018-02-05T01:36:31.909Z,2.20
2018-02-05T01:38:59.342Z,5.47
2018-02-05T01:41:26.777Z,3.00
2018-02-05T01:43:54.221Z,3.37
2018-02-05T01:46:22.422Z,3.70
2018-02-05T01:48:49.860Z,3.53
2018-02-05T01:51:18.053Z,2.83
2018-02-05T01:53:45.490Z,3.77
2018-02-05T01:56:13.694Z,1.30
2018-02-05T01:58:41.126Z,1.90
2018-02-05T02:01:08.570Z,2.30
2018-02-05T02:03:36.771Z,2.67
2018-02-05T02:06:04.238Z,4.20
2018-02-05T02:08:31.677Z,2.63
2018-02-05T02:10:59.867Z,1.00
2018-02-05T02:13:27.329Z,4.33
2018-02-05T02:15:54.774Z,1.80
2018-02-05T02:18:22.213Z,4.07
2018-02-05T02:20:50.411Z,2.93
2018-02-05T02:23:17.841Z,3.93
2018-02-05T02:25:46.042Z,4.23
2018-02-05T02:28:13.484Z,3.23
2018-02-05T02:30:40.924Z,2.20
2018-02-05T02:33:09.128Z,1.77
2018-02-05T02:35:36.575Z,4.60
2018-02-05T02:38:04.008Z,3.40
2018-02-05T02:40:32.210Z,2.37
2018-02-05T02:42:59.641Z,2.40
2018-02-05T02:45:27.847Z,2.57
2018-02-05T02:47:55.282Z,2.23
2018-02-05T02:50:22.726Z,3.43
2018-02-05T02:52:50.933Z,3.03
2018-02-05T02:55:18.370Z,1.37
2018-02-05T02:57:45.804Z,1.63
2018-02-05T03:00:14.011Z,1.10
2018-02-05T03:02:41.452Z,2.07
2018-02-05T03:05:09.658Z,3.23
2018-02-05T03:07:37.105Z,2.13
2018-02-05T03:10:04.535Z,3.07
2018-02-05T03:12:32.730Z,3.13
2018-02-05T03:15:00.175Z,3.70
2018-02-05T03:17:27.606Z,1.60
2018-02-05T03:19:55.822Z,2.90
2018-02-05T03:22:23.260Z,2.10
2018-02-05T03:24:50.702Z,4.10
2018-02-05T03:27:18.903Z,5.07
2018-02-05T03:29:46.366Z,1.83
2018-02-05T03:32:13.824Z,3.43
2018-02-05T03:34:41.242Z,3.33
2018-02-05T03:37:09.449Z,2.60
2018-02-05T03:39:36.882Z,2.63
2018-02-05T03:42:05.091Z,1.27
2018-02-05T03:44:32.530Z,3.33
2018-02-05T03:46:59.976Z,2.97
2018-02-05T03:49:28.171Z,2.97
2018-02-05T03:51:55.611Z,6.93
2018-02-05T03:54:23.043Z,3.13
2018-02-05T03:56:51.252Z,2.50
2018-02-05T03:59:18.683Z,2.93
2018-02-05T04:01:46.891Z,1.83
2018-02-05T04:04:14.322Z,2.23
2018-02-05T04:06:47.427Z,3.30
2018-02-05T04:09:14.856Z,2.90
2018-02-05T04:11:44.122Z,4.40
2018-02-05T04:14:11.567Z,2.70
2018-02-05T04:16:39.543Z,2.23
2018-02-05T04:19:06.995Z,3.17
2018-02-05T04:21:34.439Z,3.43
2018-02-05T04:24:01.880Z,2.20
2018-02-05T04:26:29.318Z,3.70
2018-02-05T04:28:56.758Z,4.00
2018-02-05T04:31:24.982Z,3.13
2018-02-05T04:33:52.404Z,1.73
2018-02-05T04:36:20.606Z,2.60
2018-02-05T04:38:48.047Z,2.90
2018-02-05T04:41:15.487Z,0.90
2018-02-05T04:43:42.917Z,0.87
2018-02-05T04:46:10.363Z,4.23
2018-02-05T04:48:37.803Z,2.20
2018-02-05T04:51:05.252Z,2.30
2018-02-05T04:53:32.694Z,1.83
2018-02-05T04:56:00.140Z,1.30
2018-02-05T04:58:27.570Z,3.57
2018-02-05T05:00:55.792Z,2.20
2018-02-05T05:03:23.222Z,3.97
2018-02-05T05:05:50.662Z,3.50
2018-02-05T05:08:18.858Z,3.00
2018-02-05T05:10:46.298Z,3.60
2018-02-05T05:13:14.516Z,3.03
2018-02-05T05:15:41.962Z,1.93
2018-02-05T05:18:09.390Z,4.70
2018-02-05T05:20:37.605Z,2.30
2018-02-05T05:23:05.030Z,4.67
2018-02-05T05:25:32.474Z,2.73
2018-02-05T05:28:00.776Z,2.13
2018-02-05T05:30:28.208Z,1.73
2018-02-05T05:32:56.398Z,2.17
2018-02-05T05:35:23.835Z,3.23
2018-02-05T05:37:52.047Z,0.70
2018-02-05T05:40:19.480Z,2.33
2018-02-05T05:42:46.918Z,1.27
2018-02-05T05:45:15.122Z,3.47
2018-02-05T05:47:42.562Z,3.80
2018-02-05T05:50:10.004Z,1.67
2018-02-05T05:52:38.207Z,3.63
2018-02-05T05:55:05.644Z,4.50
2018-02-05T05:57:33.860Z,2.73
2018-02-05T06:00:01.293Z,4.07
2018-02-05T06:02:28.735Z,4.53
2018-02-05T06:04:56.166Z,3.03
2018-02-05T06:07:23.606Z,3.27
2018-02-05T06:09:51.043Z,3.67
2018-02-05T06:12:18.483Z,2.20
2018-02-05T06:14:45.915Z,1.17
2018-02-05T06:17:13.356Z,2.67
2018-02-05T06:19:41.564Z,4.27
2018-02-05T06:22:09.043Z,2.53
2018-02-05T06:24:36.488Z,5.17
2018-02-05T06:27:03.927Z,4.27
2018-02-05T06:29:31.366Z,3.70
2018-02-05T06:31:59.589Z,1.43
2018-02-05T06:34:27.042Z,5.33
2018-02-05T06:36:54.483Z,3.30
2018-02-05T06:39:21.919Z,2.70
2018-02-05T06:41:49.362Z,1.37
2018-02-05T06:44:17.564Z,2.70
2018-02-05T06:46:45.003Z,2.30
2018-02-05T06:49:12.438Z,0.80
2018-02-05T06:51:52.610Z,3.40
2018-02-05T06:54:32.015Z,3.30
2018-02-05T06:56:59.450Z,4.83
2018-02-05T06:59:26.887Z,2.97
2018-02-05T07:01:54.335Z,3.47
2018-02-05T07:04:21.762Z,6.67
2018-02-05T07:06:49.975Z,2.20
2018-02-05T07:09:17.403Z,3.80
2018-02-05T07:11:44.882Z,3.33
2018-02-05T07:14:12.302Z,5.77
2018-02-05T07:16:40.510Z,3.93
2018-02-05T07:19:07.943Z,3.83
2018-02-05T07:21:36.139Z,1.47
2018-02-05T07:24:03.579Z,2.23
2018-02-05T07:26:31.016Z,2.67
2018-02-05T07:28:59.219Z,4.87
2018-02-05T07:31:26.666Z,3.60
2018-02-05T07:33:54.866Z,2.07
2018-02-05T07:36:22.303Z,5.20
2018-02-05T07:38:49.750Z,4.10
2018-02-05T07:41:17.179Z,4.13
2018-02-05T07:43:44.619Z,4.63
2018-02-05T07:46:12.055Z,1.37
2018-02-05T07:48:39.496Z,1.77
2018-02-05T07:51:06.939Z,1.40
2018-02-05T07:53:34.378Z,3.27
2018-02-05T07:56:02.593Z,5.70
2018-02-05T07:58:30.295Z,2.50
2018-02-05T08:00:57.710Z,3.07
2018-02-05T08:03:25.151Z,2.47
2018-02-05T08:05:52.594Z,4.57
2018-02-05T08:08:20.804Z,2.67
2018-02-05T08:10:48.235Z,2.70
2018-02-05T08:13:15.677Z,3.23
2018-02-05T08:15:43.883Z,1.97
2018-02-05T08:18:11.333Z,4.53
2018-02-05T08:20:38.755Z,2.50
2018-02-05T08:23:07.065Z,2.40
2018-02-05T08:25:34.482Z,6.03
2018-02-05T08:28:02.715Z,2.13
2018-02-05T08:30:30.187Z,3.90
2018-02-05T08:32:57.630Z,1.53
2018-02-05T08:35:25.063Z,3.70
2018-02-05T08:37:52.510Z,1.60
2018-02-05T08:40:19.951Z,2.77
2018-02-05T08:42:48.165Z,2.53
2018-02-05T08:45:15.656Z,4.90
2018-02-05T08:47:43.094Z,6.57
2018-02-05T08:50:10.520Z,3.83
2018-02-05T08:52:37.958Z,3.13
2018-02-05T08:55:05.394Z,3.00
2018-02-05T08:57:32.839Z,2.70
2018-02-05T09:00:00.267Z,6.43
2018-02-05T09:02:27.711Z,2.70
2018-02-05T09:04:55.148Z,2.60
2018-02-05T09:07:22.586Z,5.17
2018-02-05T09:09:50.796Z,5.30
2018-02-05T09:12:18.227Z,3.53
2018-02-05T09:14:45.678Z,4.27
2018-02-05T09:17:13.867Z,3.87
2018-02-05T09:19:41.317Z,6.40
2018-02-05T09:22:08.746Z,2.03
2018-02-05T09:24:36.187Z,0.80
2018-02-05T09:27:03.655Z,2.03
2018-02-05T09:29:31.083Z,2.40
2018-02-05T09:31:58.519Z,1.57
2018-02-05T09:34:25.954Z,1.73
2018-02-05T09:36:53.839Z,3.40
2018-02-05T09:39:21.267Z,1.07
2018-02-05T09:41:49.471Z,1.10
2018-02-05T09:44:16.910Z,2.93
2018-02-05T09:46:44.344Z,3.33
2018-02-05T09:49:12.589Z,3.97
2018-02-05T09:51:40.037Z,2.23
2018-02-05T09:54:08.174Z,3.47
2018-02-05T09:56:35.662Z,3.07
2018-02-05T09:59:03.103Z,2.83
2018-02-05T10:01:30.542Z,2.87
2018-02-05T10:03:58.054Z,3.13
2018-02-05T10:06:25.471Z,1.13
2018-02-05T10:08:52.918Z,4.43
2018-02-05T10:11:20.359Z,3.57
2018-02-05T10:13:48.563Z,2.87
2018-02-05T10:16:15.999Z,12.77
2018-02-05T10:18:43.439Z,3.47
2018-02-05T10:21:11.634Z,2.20
2018-02-05T10:23:39.075Z,4.07
2018-02-05T10:26:07.280Z,12.03
2018-02-05T10:28:34.723Z,1.70
2018-02-05T10:31:02.166Z,2.90
2018-02-05T10:33:29.606Z,19.70
2018-02-05T10:35:57.816Z,10.13
2018-02-05T10:38:25.251Z,6.30
2018-02-05T10:40:53.461Z,14.30
2018-02-05T10:43:20.923Z,6.47
2018-02-05T10:45:48.359Z,5.20
2018-02-05T10:48:15.798Z,4.27
2018-02-05T10:50:43.250Z,4.57
2018-02-05T10:53:11.451Z,2.10
2018-02-05T10:55:38.886Z,2.73
2018-02-05T10:58:06.340Z,2.70
2018-02-05T11:00:34.603Z,3.43
2018-02-05T11:03:01.996Z,2.30
2018-02-05T11:05:29.430Z,2.70
2018-02-05T11:07:56.952Z,3.50
2018-02-05T11:10:24.409Z,79.03
2018-02-05T11:12:51.851Z,55.23
2018-02-05T11:15:19.299Z,36.17
2018-02-05T11:17:46.734Z,49.37
2018-02-05T11:20:14.254Z,3.73
2018-02-05T11:22:42.449Z,7.63
2018-02-05T11:25:09.892Z,78.33
2018-02-05T11:27:38.102Z,50.77
2018-02-05T11:30:05.557Z,53.57
2018-02-05T11:32:32.995Z,41.10
2018-02-05T11:35:00.447Z,31.73
2018-02-05T11:37:27.901Z,48.47
2018-02-05T11:39:55.358Z,24.13
2018-02-05T11:42:23.550Z,44.70
2018-02-05T11:44:51.035Z,26.93
2018-02-05T11:47:18.514Z,26.90
2018-02-05T11:49:47.472Z,32.60
2018-02-05T11:52:14.907Z,49.63
2018-02-05T11:54:42.355Z,111.80
2018-02-05T11:57:10.315Z,109.23
2018-02-05T11:59:38.535Z,108.70
2018-02-05T12:02:05.978Z,105.70
2018-02-05T12:04:33.436Z,103.23
2018-02-05T12:07:00.886Z,102.73
2018-02-05T12:09:28.338Z,102.50
2018-02-05T12:11:55.835Z,99.53
2018-02-05T12:14:23.291Z,105.67
2018-02-05T12:16:50.843Z,89.60
2018-02-05T12:19:18.299Z,55.10
2018-02-05T12:21:45.743Z,60.87
2018-02-05T12:24:13.207Z,100.30
2018-02-05T12:26:40.655Z,115.10
2018-02-05T12:29:08.123Z,165.53
2018-02-05T12:31:35.888Z,156.97
2018-02-05T12:34:03.343Z,156.57
2018-02-05T12:36:30.795Z,157.47
2018-02-05T12:38:59.057Z,157.20
2018-02-05T12:41:26.535Z,162.27
2018-02-05T12:43:53.983Z,157.10
2018-02-05T12:46:21.436Z,144.17
2018-02-05T12:48:48.898Z,134.03
2018-02-05T12:51:16.787Z,125.17
2018-02-05T12:53:44.239Z,127.80
2018-02-05T12:56:13.194Z,127.67
2018-02-05T12:58:40.651Z,129.17
2018-02-05T13:01:24.778Z,123.13
2018-02-05T13:06:56.671Z,119.43
2018-02-05T13:09:24.163Z,119.90
2018-02-05T13:11:51.612Z,118.70
2018-02-05T13:14:19.410Z,127.63
2018-02-05T13:16:46.859Z,135.47
2018-02-05T13:19:14.315Z,127.10
2018-02-05T13:21:41.772Z,123.77
2018-02-05T13:24:09.228Z,122.30
2018-02-05T13:26:36.668Z,124.63
2018-02-05T13:29:04.224Z,118.83
2018-02-05T13:31:31.675Z,114.60
2018-02-05T13:33:59.135Z,108.23
2018-02-05T13:36:26.574Z,107.50
2018-02-05T13:38:54.156Z,105.57
2018-02-05T13:41:21.612Z,104.17
2018-02-05T13:43:49.067Z,105.97
2018-02-05T13:46:16.626Z,101.57
2018-02-05T13:48:44.159Z,101.63
2018-02-05T13:51:11.595Z,98.40
2018-02-05T13:53:39.049Z,98.07
2018-02-05T13:56:07.275Z,96.10
2018-02-05T13:58:35.218Z,101.67
2018-02-05T14:01:02.679Z,96.80
2018-02-05T14:03:30.127Z,93.50
2018-02-05T14:05:57.610Z,92.23
2018-02-05T14:08:25.088Z,92.97
2018-02-05T14:10:52.539Z,97.07
2018-02-05T14:13:20.078Z,91.40
2018-02-05T14:15:47.634Z,91.83
2018-02-05T14:18:15.075Z,91.40
2018-02-05T14:20:42.538Z,92.33
2018-02-05T14:23:10.618Z,93.90
2018-02-05T14:25:38.074Z,90.77
2018-02-05T14:28:05.514Z,87.00
2018-02-05T14:30:32.991Z,87.63
2018-02-05T14:33:00.527Z,85.30
2018-02-05T14:35:28.527Z,87.00
2018-02-05T14:37:56.083Z,88.70
2018-02-05T14:40:23.534Z,87.80
2018-02-05T14:42:50.978Z,83.57
2018-02-05T14:45:18.439Z,85.40
2018-02-05T14:47:45.887Z,86.37
2018-02-05T14:50:13.336Z,84.90
2018-02-05T14:52:41.642Z,87.97
2018-02-05T14:55:09.099Z,91.30
2018-02-05T14:57:36.945Z,91.67
2018-02-05T15:00:04.383Z,91.70
2018-02-05T15:02:31.827Z,92.50
2018-02-05T15:05:00.053Z,92.77
2018-02-05T15:07:27.493Z,91.73
2018-02-05T15:09:54.942Z,94.90
2018-02-05T15:12:22.396Z,90.57
2018-02-05T15:14:49.855Z,90.70
2018-02-05T15:17:17.291Z,92.83
2018-02-05T15:19:44.787Z,86.80
2018-02-05T15:22:12.232Z,86.80
2018-02-05T15:24:39.686Z,83.97
2018-02-05T15:27:07.133Z,92.10
2018-02-05T15:29:34.616Z,115.23
2018-02-05T15:32:02.070Z,115.03
2018-02-05T15:34:29.531Z,117.90
2018-02-05T15:36:57.154Z,113.90
2018-02-05T15:39:24.543Z,111.63
2018-02-05T15:41:52.111Z,106.60
2018-02-05T15:44:19.558Z,111.10
2018-02-05T15:46:47.022Z,102.70
2018-02-05T15:49:14.476Z,105.90
2018-02-05T15:51:41.941Z,101.43
2018-02-05T15:54:09.386Z,102.90
2018-02-05T15:56:36.842Z,108.37
2018-02-05T15:59:04.380Z,109.20
2018-02-05T16:01:31.834Z,111.67
2018-02-05T16:03:59.282Z,106.50
2018-02-05T16:06:26.746Z,106.50
2018-02-05T16:08:54.190Z,103.27
2018-02-05T16:11:21.664Z,108.90
2018-02-05T16:13:49.119Z,105.20
2018-02-05T16:16:16.574Z,108.27
2018-02-05T16:18:44.025Z,108.80
2018-02-05T16:21:11.474Z,109.90
2018-02-05T16:23:38.970Z,113.03
2018-02-05T16:26:06.440Z,113.00
2018-02-05T16:28:34.708Z,110.67
2018-02-05T16:31:02.163Z,112.20
2018-02-05T16:33:29.614Z,108.73
2018-02-05T16:35:57.174Z,106.53
2018-02-05T16:38:24.626Z,107.07
2018-02-05T16:40:52.096Z,108.70
2018-02-05T16:43:19.539Z,104.17
2018-02-05T16:45:46.995Z,105.80
2018-02-05T16:48:14.446Z,107.70
2018-02-05T16:50:41.902Z,101.30
2018-02-05T16:53:09.375Z,104.07
2018-02-05T16:55:36.828Z,105.23
2018-02-05T16:58:04.275Z,106.13
2018-02-05T17:00:31.874Z,106.43
2018-02-05T17:02:59.381Z,103.40
2018-02-05T17:05:26.830Z,108.57
2018-02-05T17:07:54.396Z,108.23
2018-02-05T17:10:21.883Z,105.40
2018-02-05T17:12:49.335Z,106.57
2018-02-05T17:15:16.791Z,106.10
2018-02-05T17:17:44.283Z,105.73
2018-02-05T17:20:12.523Z,111.63
2018-02-05T17:22:39.974Z,105.70
2018-02-05T17:25:07.435Z,106.77
2018-02-05T17:27:34.882Z,106.33
2018-02-05T17:30:02.343Z,108.33
2018-02-05T17:32:29.807Z,107.23
2018-02-05T17:34:57.263Z,107.27
2018-02-05T17:37:24.718Z,111.70
2018-02-05T17:39:52.176Z,113.70
2018-02-05T17:42:19.627Z,110.50
2018-02-05T17:44:47.107Z,109.67
2018-02-05T17:47:14.656Z,109.00
2018-02-05T17:49:42.107Z,108.67
2018-02-05T17:52:09.573Z,110.50
2018-02-05T17:54:37.029Z,110.63
2018-02-05T17:57:04.494Z,116.40
2018-02-05T17:59:31.947Z,111.10
2018-02-05T18:01:59.597Z,110.20
2018-02-05T18:04:27.155Z,111.90
2018-02-05T18:06:54.614Z,112.97
2018-02-05T18:09:22.087Z,113.77
2018-02-05T18:11:49.553Z,112.23
2018-02-05T18:14:17.318Z,112.33
2018-02-05T18:16:44.785Z,113.33
2018-02-05T18:19:13.004Z,111.57
2018-02-05T18:21:40.470Z,112.87
2018-02-05T18:24:07.922Z,114.90
2018-02-05T18:26:35.383Z,113.27
2018-02-05T18:29:02.847Z,110.73
2018-02-05T18:31:30.409Z,116.70
2018-02-05T18:33:57.863Z,113.97
2018-02-05T18:36:25.331Z,111.50
2018-02-05T18:38:52.790Z,116.77
2018-02-05T18:41:20.255Z,116.47
2018-02-05T18:43:48.468Z,116.40
2018-02-05T18:46:15.927Z,116.00
2018-02-05T18:48:43.384Z,117.20
2018-02-05T18:51:10.860Z,115.97
2018-02-05T18:53:38.316Z,117.27
2018-02-05T18:56:05.794Z,117.30
2018-02-05T18:58:33.251Z,121.23
2018-02-05T19:01:00.716Z,117.70
2018-02-05T19:03:28.271Z,115.73
2018-02-05T19:05:56.135Z,119.93
2018-02-05T19:08:23.586Z,119.87
2018-02-05T19:10:51.071Z,112.60
2018-02-05T19:13:18.603Z,109.87
2018-02-05T19:15:46.062Z,112.93
2018-02-05T19:18:13.522Z,114.03
2018-02-05T19:20:40.980Z,117.17
2018-02-05T19:23:08.438Z,112.60
2018-02-05T19:25:35.992Z,113.40
2018-02-05T19:28:03.454Z,113.50
2018-02-05T19:30:30.907Z,112.00
2018-02-05T19:32:58.372Z,113.00
2018-02-05T19:35:25.831Z,110.30
2018-02-05T19:37:53.291Z,113.33
2018-02-05T19:40:21.517Z,117.80
2018-02-05T19:42:49.011Z,120.70
2018-02-05T19:45:16.473Z,114.07
2018-02-05T19:47:44.342Z,117.27
2018-02-05T19:50:11.895Z,114.60
2018-02-05T19:52:39.347Z,111.60
2018-02-05T19:55:06.914Z,111.80
2018-02-05T19:57:34.467Z,114.73
2018-02-05T20:00:01.927Z,124.87
2018-02-05T20:02:29.393Z,117.83
2018-02-05T20:04:56.838Z,114.33
2018-02-05T20:07:24.305Z,115.80
2018-02-05T20:09:51.762Z,113.75
2018-02-05T20:12:19.238Z,116.60
2018-02-05T20:14:47.455Z,112.13
2018-02-05T20:17:14.939Z,119.85
2018-02-05T20:19:42.502Z,113.53
2018-02-05T20:22:10.064Z,115.20
2018-02-05T20:24:37.621Z,112.93
2018-02-05T20:27:05.180Z,116.22
2018-02-05T20:29:32.835Z,111.60
2018-02-05T20:32:00.308Z,112.07
2018-02-05T20:34:27.778Z,112.75
2018-02-05T20:36:56.005Z,116.05
2018-02-05T20:39:23.463Z,114.32
2018-02-05T20:41:50.931Z,114.00
2018-02-05T20:44:18.398Z,116.40
2018-02-05T20:46:45.959Z,122.43
2018-02-05T20:49:13.415Z,118.70
2018-02-05T20:51:41.695Z,120.25
2018-02-05T20:54:09.160Z,115.97
2018-02-05T20:56:36.706Z,111.25
2018-02-05T20:59:04.261Z,113.85
2018-02-05T21:01:32.655Z,115.85
2018-02-05T21:04:00.815Z,112.10
2018-02-05T21:06:28.274Z,109.07
2018-02-05T21:08:55.739Z,110.05
2018-02-05T21:11:23.297Z,114.85
2018-02-05T21:13:50.754Z,114.07
2018-02-05T21:16:18.307Z,116.32
2018-02-05T21:18:45.782Z,115.80
2018-02-05T21:21:13.315Z,120.40
2018-02-05T21:23:40.783Z,116.32
2018-02-05T21:26:08.244Z,119.60
2018-02-05T21:28:35.711Z,117.05
2018-02-05T21:31:03.292Z,119.13
2018-02-05T21:33:30.715Z,119.50
2018-02-05T21:35:58.263Z,124.47
2018-02-05T21:38:25.731Z,119.72
2018-02-05T21:40:53.190Z,117.30
2018-02-05T21:43:20.659Z,115.88
2018-02-05T21:45:48.920Z,119.70
2018-02-05T21:48:16.472Z,118.70
2018-02-05T21:50:43.927Z,116.93
2018-02-05T21:53:11.392Z,117.15
2018-02-05T21:55:38.947Z,117.20
2018-02-05T21:58:06.501Z,119.53
2018-02-05T22:00:33.954Z,123.07
2018-02-05T22:03:01.424Z,114.95
2018-02-05T22:05:28.947Z,114.55
2018-02-05T22:07:56.419Z,115.62
2018-02-05T22:10:23.879Z,116.97
2018-02-05T22:12:51.343Z,115.25
2018-02-05T22:15:18.903Z,117.28
2018-02-05T22:17:46.363Z,119.97
2018-02-05T22:20:13.822Z,119.53
2018-02-05T22:22:41.434Z,123.22
2018-02-05T22:25:09.644Z,119.82
2018-02-05T22:27:37.110Z,117.75
2018-02-05T22:30:04.563Z,119.57
2018-02-05T22:32:32.123Z,123.60
2018-02-05T22:34:59.591Z,119.70
2018-02-05T22:37:27.048Z,122.68
2018-02-05T22:39:54.594Z,120.70
2018-02-05T22:42:22.062Z,119.32
2018-02-05T22:44:49.610Z,121.32
2018-02-05T22:47:17.079Z,120.25
2018-02-05T22:49:44.846Z,123.55
2018-02-05T22:52:12.311Z,117.55
2018-02-05T22:54:39.775Z,120.90
2018-02-05T22:57:07.227Z,120.40
2018-02-05T22:59:35.457Z,118.18
2018-02-05T23:02:02.911Z,119.97
2018-02-05T23:04:30.374Z,123.95
2018-02-05T23:06:57.834Z,119.75
2018-02-05T23:09:25.339Z,120.95
2018-02-05T23:11:52.759Z,117.68
2018-02-05T23:14:20.218Z,93.65
2018-02-05T23:16:47.679Z,114.25
2018-02-05T23:19:15.142Z,116.75
2018-02-05T23:21:42.886Z,118.50
2018-02-05T23:24:10.359Z,118.68
2018-02-05T23:26:37.812Z,119.82
2018-02-05T23:29:05.367Z,121.95
2018-02-05T23:31:33.072Z,118.22
2018-02-05T23:34:01.311Z,122.47
2018-02-05T23:36:28.862Z,123.80
2018-02-05T23:38:56.323Z,123.18
2018-02-05T23:41:23.783Z,124.25
2018-02-05T23:43:51.248Z,120.87
2018-02-05T23:46:18.702Z,122.93
2018-02-05T23:48:46.163Z,120.45
2018-02-05T23:51:13.618Z,121.07
2018-02-05T23:53:41.078Z,122.57
2018-02-05T23:56:08.531Z,121.40
2018-02-05T23:58:35.987Z,120.45
